createdAt,value
2022-11-06T00:03:14.918Z,0
2022-11-06T00:09:25.564Z,0
2022-11-06T00:15:36.235Z,0
2022-11-06T00:21:46.859Z,0
2022-11-06T00:27:57.582Z,0
2022-11-06T00:34:08.201Z,0
2022-11-06T00:40:18.863Z,0
2022-11-06T00:46:29.571Z,0
2022-11-06T00:52:40.189Z,0
2022-11-06T00:58:42.648Z,0
2022-11-06T01:04:53.371Z,0
2022-11-06T01:11:04.077Z,0
2022-11-06T01:17:14.674Z,0
2022-11-06T01:23:25.331Z,0
2022-11-06T01:29:35.996Z,0
2022-11-06T01:35:46.688Z,0
2022-11-06T01:40:59.626Z,0
2022-11-06T01:47:10.230Z,0
2022-11-06T01:53:20.895Z,0
2022-11-06T01:59:23.397Z,0
2022-11-06T02:05:34.067Z,0
2022-11-06T02:11:44.722Z,0
2022-11-06T02:17:55.415Z,0
2022-11-06T02:24:06.069Z,0
2022-11-06T02:30:16.695Z,0
2022-11-06T02:36:27.435Z,0
2022-11-06T02:42:38.036Z,0
2022-11-06T02:48:48.730Z,0
2022-11-06T02:56:05.349Z,0
2022-11-06T03:02:16.104Z,0
2022-11-06T03:08:26.630Z,0
2022-11-06T03:14:37.343Z,0
2022-11-06T03:19:42.041Z,0
2022-11-06T03:25:52.723Z,0
2022-11-06T03:32:03.389Z,0
2022-11-06T03:38:14.370Z,0
2022-11-06T03:44:24.730Z,0
2022-11-06T03:50:35.396Z,0
2022-11-06T03:56:46.052Z,0
2022-11-06T04:02:48.646Z,0
2022-11-06T04:08:01.438Z,0
2022-11-06T04:14:12.099Z,0
2022-11-06T04:20:22.790Z,0
2022-11-06T04:26:33.542Z,0
2022-11-06T04:32:44.098Z,0
2022-11-06T04:38:54.766Z,0
2022-11-06T04:45:05.467Z,0
2022-11-06T04:51:16.080Z,0
2022-11-06T04:57:18.598Z,0
2022-11-06T05:03:29.255Z,0
2022-11-06T05:09:39.872Z,0
2022-11-06T05:15:50.543Z,0
2022-11-06T05:22:01.245Z,0
2022-11-06T05:28:12.142Z,0
2022-11-06T05:34:22.546Z,0
2022-11-06T05:40:33.259Z,0
2022-11-06T05:46:49.338Z,0
2022-11-06T05:52:54.594Z,0
2022-11-06T05:58:57.041Z,0
2022-11-06T06:05:07.664Z,0
2022-11-06T06:11:18.392Z,0
2022-11-06T06:17:29.131Z,0
2022-11-06T06:23:39.663Z,0
2022-11-06T06:29:50.329Z,0
2022-11-06T06:36:01.255Z,0
2022-11-06T06:41:13.944Z,0
2022-11-06T06:47:24.589Z,0
2022-11-06T06:53:35.269Z,0
2022-11-06T06:59:37.741Z,0
2022-11-06T07:05:48.398Z,0
2022-11-06T07:11:59.105Z,0
2022-11-06T07:18:09.769Z,0
2022-11-06T07:24:20.390Z,0
2022-11-06T07:29:25.195Z,0
2022-11-06T07:35:35.794Z,0
2022-11-06T07:41:46.444Z,0
2022-11-06T07:47:59.214Z,0
2022-11-06T07:54:07.786Z,0
2022-11-06T08:00:10.241Z,0
2022-11-06T08:06:20.931Z,0
2022-11-06T08:12:31.594Z,0
2022-11-06T08:18:42.247Z,0
2022-11-06T08:24:52.946Z,0
2022-11-06T08:31:03.644Z,0
2022-11-06T08:37:14.263Z,0
2022-11-06T08:43:24.933Z,0
2022-11-06T08:49:35.592Z,0
2022-11-06T08:55:46.245Z,0
2022-11-06T09:01:49.113Z,0
2022-11-06T09:08:15.773Z,0
2022-11-06T09:14:26.459Z,0
2022-11-06T09:20:37.119Z,0
2022-11-06T09:26:47.789Z,0
2022-11-06T09:32:58.444Z,0
2022-11-06T09:39:09.117Z,0
2022-11-06T09:45:19.763Z,0
2022-11-06T09:51:30.427Z,0
2022-11-06T09:58:55.273Z,0
2022-11-06T10:06:20.025Z,0
2022-11-06T10:13:36.611Z,0
2022-11-06T10:19:55.509Z,0
2022-11-06T10:27:20.269Z,0.1
2022-11-06T10:34:45.085Z,0.3
2022-11-06T10:40:55.883Z,0.4
2022-11-06T10:46:00.474Z,0.5
2022-11-06T10:52:11.147Z,0.5
2022-11-06T10:58:21.829Z,0.3
2022-11-06T11:04:32.508Z,0.1
2022-11-06T11:10:52.003Z,0
2022-11-06T11:16:45.644Z,0.2
2022-11-06T11:22:56.321Z,0.2
2022-11-06T11:29:06.943Z,0.4
2022-11-06T11:35:17.631Z,0.4
2022-11-06T11:40:30.517Z,0.8
2022-11-06T11:46:41.194Z,0.9
2022-11-06T11:51:45.940Z,1.1
2022-11-06T11:57:56.614Z,1.2
2022-11-06T12:04:07.254Z,1.1
2022-11-06T12:10:17.956Z,1.2
2022-11-06T12:16:20.391Z,1.5
2022-11-06T12:22:31.056Z,1.9
2022-11-06T12:28:41.780Z,2.2
2022-11-06T12:34:52.397Z,2.2
2022-11-06T12:41:03.055Z,2
2022-11-06T12:47:13.836Z,1.9
2022-11-06T12:53:24.391Z,2.5
2022-11-06T12:59:35.063Z,2.4
2022-11-06T13:05:45.746Z,2.3
2022-11-06T13:13:02.359Z,2.3
2022-11-06T13:19:12.997Z,2.5
2022-11-06T13:25:23.701Z,2.5
2022-11-06T13:31:34.340Z,2.4
2022-11-06T13:37:44.997Z,2.4
2022-11-06T13:43:55.677Z,3.1
2022-11-06T13:50:06.339Z,3
2022-11-06T13:56:16.991Z,3.2
2022-11-06T14:02:27.918Z,3.2
2022-11-06T14:07:40.567Z,3.2
2022-11-06T14:13:51.238Z,3.3
2022-11-06T14:19:53.766Z,3.3
2022-11-06T14:26:04.381Z,3.2
2022-11-06T14:32:15.032Z,3.4
2022-11-06T14:38:25.741Z,3
2022-11-06T14:44:36.395Z,3.6
2022-11-06T14:50:47.039Z,3.4
2022-11-06T14:56:57.757Z,3.4
2022-11-06T15:03:08.397Z,3.4
2022-11-06T15:09:19.053Z,3.7
2022-11-06T15:16:35.763Z,3.7
2022-11-06T15:22:54.507Z,3.7
2022-11-06T15:30:19.316Z,3.8
2022-11-06T15:37:44.131Z,3.6
2022-11-06T15:43:54.902Z,3.3
2022-11-06T15:48:59.496Z,2.8
2022-11-06T15:55:11.375Z,3
2022-11-06T16:01:20.891Z,3.1
2022-11-06T16:07:31.495Z,3.1
2022-11-06T16:12:36.233Z,2.7
2022-11-06T16:18:38.678Z,2.5
2022-11-06T16:24:49.366Z,2.6
2022-11-06T16:31:00.230Z,1.5
2022-11-06T16:37:27.111Z,1
2022-11-06T16:43:37.767Z,0.3
2022-11-06T16:49:53.135Z,0.3
2022-11-06T16:55:59.119Z,0
2022-11-06T17:02:09.815Z,0
2022-11-06T17:08:20.424Z,0
2022-11-06T17:15:37.006Z,0
2022-11-06T17:21:47.675Z,0
2022-11-06T17:27:58.371Z,0
2022-11-06T17:34:09.006Z,0
2022-11-06T17:40:19.666Z,0
2022-11-06T17:46:30.416Z,0
2022-11-06T17:52:41.006Z,0
2022-11-06T17:58:51.682Z,0
2022-11-06T18:06:16.470Z,0
2022-11-06T18:12:27.131Z,0
2022-11-06T18:18:29.626Z,0
2022-11-06T18:24:40.299Z,0
2022-11-06T18:30:50.931Z,0
2022-11-06T18:37:01.595Z,0
2022-11-06T18:43:12.320Z,0
2022-11-06T18:49:22.935Z,0
2022-11-06T18:55:33.584Z,0
2022-11-06T19:01:44.451Z,0
2022-11-06T19:08:11.315Z,0
2022-11-06T19:14:22.002Z,0
2022-11-06T19:20:24.562Z,0
2022-11-06T19:26:35.138Z,0
2022-11-06T19:32:45.803Z,0
2022-11-06T19:38:56.483Z,0
2022-11-06T19:45:07.111Z,0
2022-11-06T19:51:17.803Z,0
2022-11-06T19:57:30.474Z,0
2022-11-06T20:03:39.137Z,0
2022-11-06T20:09:49.768Z,0
2022-11-06T20:17:06.510Z,0
2022-11-06T20:22:11.122Z,0
2022-11-06T20:29:35.974Z,0
2022-11-06T20:37:00.723Z,0
2022-11-06T20:42:05.543Z,0
2022-11-06T20:48:16.098Z,0
2022-11-06T20:54:26.829Z,0
2022-11-06T21:00:37.448Z,0
2022-11-06T21:06:48.103Z,0
2022-11-06T21:14:12.920Z,0
2022-11-06T21:20:19.078Z,0
2022-11-06T21:26:26.050Z,0
2022-11-06T21:32:36.727Z,0
2022-11-06T21:37:41.660Z,0
2022-11-06T21:44:41.270Z,0
2022-11-06T21:51:00.390Z,0
2022-11-06T21:56:04.927Z,0
2022-11-06T22:02:32.082Z,0
2022-11-06T22:09:56.743Z,0
2022-11-06T22:17:21.484Z,0
2022-11-06T22:23:32.175Z,0
2022-11-06T22:28:36.934Z,0
2022-11-06T22:34:39.339Z,0
2022-11-06T22:40:50.030Z,0
2022-11-06T22:47:00.715Z,0
2022-11-06T22:53:15.049Z,0
2022-11-06T22:59:22.036Z,0
2022-11-06T23:05:32.730Z,0
2022-11-06T23:11:43.340Z,0
2022-11-06T23:17:54.015Z,0
2022-11-06T23:24:04.714Z,0
2022-11-06T23:30:15.342Z,0
2022-11-06T23:36:17.845Z,0
2022-11-06T23:42:28.506Z,0
2022-11-06T23:48:39.167Z,0
2022-11-06T23:54:49.801Z,0
